sensor_id;sensor_type;location;lat;lon;timestamp;P1;durP1;ratioP1;P2;durP2;ratioP2
3197;SDS011;1611;49.394;11.136;2023-07-08T00:02:09;6.53;;;4.73;;
3197;SDS011;1611;49.394;11.136;2023-07-08T00:04:36;6.60;;;4.73;;
3197;SDS011;1611;49.394;11.136;2023-07-08T00:07:03;6.37;;;5.10;;
3197;SDS011;1611;49.394;11.136;2023-07-08T00:09:31;5.57;;;4.43;;
3197;SDS011;1611;49.394;11.136;2023-07-08T00:11:58;5.30;;;4.80;;
3197;SDS011;1611;49.394;11.136;2023-07-08T00:14:25;5.77;;;4.77;;
3197;SDS011;1611;49.394;11.136;2023-07-08T00:16:53;7.57;;;5.10;;
3197;SDS011;1611;49.394;11.136;2023-07-08T00:19:19;6.90;;;4.70;;
3197;SDS011;1611;49.394;11.136;2023-07-08T00:21:49;12.17;;;5.60;;
3197;SDS011;1611;49.394;11.136;2023-07-08T00:24:17;5.10;;;4.60;;
3197;SDS011;1611;49.394;11.136;2023-07-08T00:26:44;12.20;;;5.30;;
3197;SDS011;1611;49.394;11.136;2023-07-08T00:29:11;5.57;;;4.67;;
3197;SDS011;1611;49.394;11.136;2023-07-08T00:31:39;5.93;;;5.00;;
3197;SDS011;1611;49.394;11.136;2023-07-08T00:34:07;6.37;;;5.70;;
3197;SDS011;1611;49.394;11.136;2023-07-08T00:36:33;5.30;;;4.80;;
3197;SDS011;1611;49.394;11.136;2023-07-08T00:39:01;10.70;;;5.50;;
3197;SDS011;1611;49.394;11.136;2023-07-08T00:41:28;6.17;;;5.60;;
3197;SDS011;1611;49.394;11.136;2023-07-08T00:43:58;5.90;;;5.40;;
3197;SDS011;1611;49.394;11.136;2023-07-08T00:46:30;6.47;;;5.23;;
3197;SDS011;1611;49.394;11.136;2023-07-08T00:49:05;7.30;;;5.93;;
3197;SDS011;1611;49.394;11.136;2023-07-08T00:51:44;6.40;;;5.00;;
3197;SDS011;1611;49.394;11.136;2023-07-08T00:54:11;9.57;;;5.70;;
3197;SDS011;1611;49.394;11.136;2023-07-08T00:56:39;5.50;;;4.90;;
3197;SDS011;1611;49.394;11.136;2023-07-08T00:59:09;6.10;;;5.43;;
3197;SDS011;1611;49.394;11.136;2023-07-08T01:01:43;8.80;;;5.87;;
3197;SDS011;1611;49.394;11.136;2023-07-08T01:04:11;5.13;;;4.70;;
3197;SDS011;1611;49.394;11.136;2023-07-08T01:06:43;6.43;;;5.10;;
3197;SDS011;1611;49.394;11.136;2023-07-08T01:09:13;9.83;;;5.93;;
3197;SDS011;1611;49.394;11.136;2023-07-08T01:11:41;6.30;;;5.10;;
3197;SDS011;1611;49.394;11.136;2023-07-08T01:14:09;6.83;;;5.40;;
3197;SDS011;1611;49.394;11.136;2023-07-08T01:16:40;6.80;;;5.80;;
3197;SDS011;1611;49.394;11.136;2023-07-08T01:19:08;5.40;;;4.90;;
3197;SDS011;1611;49.394;11.136;2023-07-08T01:21:45;5.57;;;5.07;;
3197;SDS011;1611;49.394;11.136;2023-07-08T01:24:12;11.80;;;4.77;;
3197;SDS011;1611;49.394;11.136;2023-07-08T01:26:41;8.40;;;5.87;;
3197;SDS011;1611;49.394;11.136;2023-07-08T01:29:10;6.43;;;5.17;;
3197;SDS011;1611;49.394;11.136;2023-07-08T01:31:37;8.73;;;5.53;;
3197;SDS011;1611;49.394;11.136;2023-07-08T01:34:04;5.80;;;4.97;;
3197;SDS011;1611;49.394;11.136;2023-07-08T01:36:33;6.53;;;5.40;;
3197;SDS011;1611;49.394;11.136;2023-07-08T01:39:06;10.43;;;5.10;;
3197;SDS011;1611;49.394;11.136;2023-07-08T01:41:36;10.67;;;5.60;;
3197;SDS011;1611;49.394;11.136;2023-07-08T01:44:02;6.87;;;5.33;;
3197;SDS011;1611;49.394;11.136;2023-07-08T01:46:29;5.63;;;5.13;;
3197;SDS011;1611;49.394;11.136;2023-07-08T01:48:57;8.20;;;5.50;;
3197;SDS011;1611;49.394;11.136;2023-07-08T01:51:27;6.00;;;5.37;;
3197;SDS011;1611;49.394;11.136;2023-07-08T01:53:54;5.53;;;5.03;;
3197;SDS011;1611;49.394;11.136;2023-07-08T01:56:22;7.13;;;5.73;;
3197;SDS011;1611;49.394;11.136;2023-07-08T01:58:49;5.73;;;4.70;;
3197;SDS011;1611;49.394;11.136;2023-07-08T02:01:15;10.50;;;5.40;;
3197;SDS011;1611;49.394;11.136;2023-07-08T02:03:42;7.43;;;5.27;;
3197;SDS011;1611;49.394;11.136;2023-07-08T02:06:11;5.73;;;4.93;;
3197;SDS011;1611;49.394;11.136;2023-07-08T02:08:38;6.07;;;5.47;;
3197;SDS011;1611;49.394;11.136;2023-07-08T02:11:05;6.47;;;5.70;;
3197;SDS011;1611;49.394;11.136;2023-07-08T02:13:33;9.17;;;5.33;;
3197;SDS011;1611;49.394;11.136;2023-07-08T02:15:59;5.43;;;4.90;;
3197;SDS011;1611;49.394;11.136;2023-07-08T02:18:26;7.10;;;6.10;;
3197;SDS011;1611;49.394;11.136;2023-07-08T02:20:54;6.10;;;5.30;;
3197;SDS011;1611;49.394;11.136;2023-07-08T02:23:21;6.27;;;5.47;;
3197;SDS011;1611;49.394;11.136;2023-07-08T02:25:51;5.60;;;5.10;;
3197;SDS011;1611;49.394;11.136;2023-07-08T02:28:18;9.00;;;4.87;;
3197;SDS011;1611;49.394;11.136;2023-07-08T02:30:46;6.63;;;5.40;;
3197;SDS011;1611;49.394;11.136;2023-07-08T02:33:13;6.87;;;5.87;;
3197;SDS011;1611;49.394;11.136;2023-07-08T02:35:42;8.83;;;5.33;;
3197;SDS011;1611;49.394;11.136;2023-07-08T02:38:10;6.53;;;5.30;;
3197;SDS011;1611;49.394;11.136;2023-07-08T02:40:37;6.17;;;5.30;;
3197;SDS011;1611;49.394;11.136;2023-07-08T02:43:03;7.33;;;5.33;;
3197;SDS011;1611;49.394;11.136;2023-07-08T02:45:31;8.10;;;4.93;;
3197;SDS011;1611;49.394;11.136;2023-07-08T02:47:59;5.60;;;4.60;;
3197;SDS011;1611;49.394;11.136;2023-07-08T02:50:26;9.00;;;4.77;;
3197;SDS011;1611;49.394;11.136;2023-07-08T02:52:52;9.00;;;5.93;;
3197;SDS011;1611;49.394;11.136;2023-07-08T02:55:19;6.53;;;5.87;;
3197;SDS011;1611;49.394;11.136;2023-07-08T02:57:46;11.33;;;5.40;;
3197;SDS011;1611;49.394;11.136;2023-07-08T03:00:13;5.50;;;5.00;;
3197;SDS011;1611;49.394;11.136;2023-07-08T03:02:40;6.17;;;5.47;;
3197;SDS011;1611;49.394;11.136;2023-07-08T03:05:08;8.07;;;5.63;;
3197;SDS011;1611;49.394;11.136;2023-07-08T03:07:35;5.60;;;5.10;;
3197;SDS011;1611;49.394;11.136;2023-07-08T03:10:02;6.80;;;5.73;;
3197;SDS011;1611;49.394;11.136;2023-07-08T03:12:30;7.20;;;5.63;;
3197;SDS011;1611;49.394;11.136;2023-07-08T03:14:57;7.37;;;5.60;;
3197;SDS011;1611;49.394;11.136;2023-07-08T03:17:23;6.30;;;5.30;;
3197;SDS011;1611;49.394;11.136;2023-07-08T03:19:50;10.17;;;6.50;;
3197;SDS011;1611;49.394;11.136;2023-07-08T03:22:18;6.87;;;5.50;;
3197;SDS011;1611;49.394;11.136;2023-07-08T03:24:45;6.67;;;5.33;;
3197;SDS011;1611;49.394;11.136;2023-07-08T03:27:12;6.50;;;5.60;;
3197;SDS011;1611;49.394;11.136;2023-07-08T03:29:39;8.47;;;5.80;;
3197;SDS011;1611;49.394;11.136;2023-07-08T03:32:07;6.13;;;5.43;;
3197;SDS011;1611;49.394;11.136;2023-07-08T03:34:35;7.50;;;6.07;;
3197;SDS011;1611;49.394;11.136;2023-07-08T03:37:02;7.40;;;5.40;;
3197;SDS011;1611;49.394;11.136;2023-07-08T03:39:31;6.90;;;6.27;;
3197;SDS011;1611;49.394;11.136;2023-07-08T03:41:58;6.53;;;5.77;;
3197;SDS011;1611;49.394;11.136;2023-07-08T03:44:24;6.93;;;5.87;;
3197;SDS011;1611;49.394;11.136;2023-07-08T03:46:51;7.20;;;6.33;;
3197;SDS011;1611;49.394;11.136;2023-07-08T03:49:19;8.37;;;5.10;;
3197;SDS011;1611;49.394;11.136;2023-07-08T03:51:49;7.87;;;6.53;;
3197;SDS011;1611;49.394;11.136;2023-07-08T03:54:17;7.80;;;6.80;;
3197;SDS011;1611;49.394;11.136;2023-07-08T03:56:46;8.43;;;6.60;;
3197;SDS011;1611;49.394;11.136;2023-07-08T03:59:13;8.40;;;6.83;;
3197;SDS011;1611;49.394;11.136;2023-07-08T04:01:39;6.23;;;5.60;;
3197;SDS011;1611;49.394;11.136;2023-07-08T04:04:06;6.70;;;5.80;;
3197;SDS011;1611;49.394;11.136;2023-07-08T04:06:35;9.17;;;6.13;;
3197;SDS011;1611;49.394;11.136;2023-07-08T04:09:02;6.70;;;5.90;;
3197;SDS011;1611;49.394;11.136;2023-07-08T04:11:29;8.30;;;5.53;;
3197;SDS011;1611;49.394;11.136;2023-07-08T04:13:57;6.57;;;5.87;;
3197;SDS011;1611;49.394;11.136;2023-07-08T04:16:25;9.20;;;6.20;;
3197;SDS011;1611;49.394;11.136;2023-07-08T04:18:54;6.33;;;5.80;;
3197;SDS011;1611;49.394;11.136;2023-07-08T04:21:21;8.57;;;5.90;;
3197;SDS011;1611;49.394;11.136;2023-07-08T04:23:50;11.60;;;6.47;;
3197;SDS011;1611;49.394;11.136;2023-07-08T04:26:16;8.33;;;6.93;;
3197;SDS011;1611;49.394;11.136;2023-07-08T04:28:44;11.53;;;5.77;;
3197;SDS011;1611;49.394;11.136;2023-07-08T04:31:12;14.13;;;6.97;;
3197;SDS011;1611;49.394;11.136;2023-07-08T04:33:39;20.03;;;6.70;;
3197;SDS011;1611;49.394;11.136;2023-07-08T04:36:08;52.40;;;10.10;;
3197;SDS011;1611;49.394;11.136;2023-07-08T04:38:40;58.70;;;9.23;;
3197;SDS011;1611;49.394;11.136;2023-07-08T04:41:11;16.83;;;7.60;;
3197;SDS011;1611;49.394;11.136;2023-07-08T04:43:38;43.27;;;7.53;;
3197;SDS011;1611;49.394;11.136;2023-07-08T04:46:08;9.73;;;6.10;;
3197;SDS011;1611;49.394;11.136;2023-07-08T04:48:44;38.17;;;8.50;;
3197;SDS011;1611;49.394;11.136;2023-07-08T04:51:13;6.70;;;6.07;;
3197;SDS011;1611;49.394;11.136;2023-07-08T04:53:40;9.90;;;6.30;;
3197;SDS011;1611;49.394;11.136;2023-07-08T04:56:07;46.43;;;7.10;;
3197;SDS011;1611;49.394;11.136;2023-07-08T04:58:34;21.80;;;7.13;;
3197;SDS011;1611;49.394;11.136;2023-07-08T05:01:00;14.47;;;6.60;;
3197;SDS011;1611;49.394;11.136;2023-07-08T05:03:29;8.77;;;6.40;;
3197;SDS011;1611;49.394;11.136;2023-07-08T05:05:55;10.30;;;6.50;;
3197;SDS011;1611;49.394;11.136;2023-07-08T05:08:22;7.23;;;6.03;;
3197;SDS011;1611;49.394;11.136;2023-07-08T05:10:49;15.40;;;6.90;;
3197;SDS011;1611;49.394;11.136;2023-07-08T05:13:15;27.10;;;7.80;;
3197;SDS011;1611;49.394;11.136;2023-07-08T05:15:42;15.93;;;6.93;;
3197;SDS011;1611;49.394;11.136;2023-07-08T05:18:09;24.53;;;7.90;;
3197;SDS011;1611;49.394;11.136;2023-07-08T05:20:37;58.63;;;8.60;;
3197;SDS011;1611;49.394;11.136;2023-07-08T05:23:03;13.03;;;7.47;;
3197;SDS011;1611;49.394;11.136;2023-07-08T05:25:30;13.90;;;6.97;;
3197;SDS011;1611;49.394;11.136;2023-07-08T05:27:57;16.13;;;7.07;;
3197;SDS011;1611;49.394;11.136;2023-07-08T05:30:25;12.73;;;7.20;;
3197;SDS011;1611;49.394;11.136;2023-07-08T05:32:52;9.23;;;6.53;;
3197;SDS011;1611;49.394;11.136;2023-07-08T05:35:19;8.73;;;6.27;;
3197;SDS011;1611;49.394;11.136;2023-07-08T05:37:47;21.63;;;7.00;;
3197;SDS011;1611;49.394;11.136;2023-07-08T05:40:14;83.63;;;10.93;;
3197;SDS011;1611;49.394;11.136;2023-07-08T05:42:41;36.17;;;8.03;;
3197;SDS011;1611;49.394;11.136;2023-07-08T05:45:08;43.57;;;8.30;;
3197;SDS011;1611;49.394;11.136;2023-07-08T05:47:36;22.60;;;7.50;;
3197;SDS011;1611;49.394;11.136;2023-07-08T05:50:03;17.20;;;6.40;;
3197;SDS011;1611;49.394;11.136;2023-07-08T05:52:30;21.50;;;6.63;;
3197;SDS011;1611;49.394;11.136;2023-07-08T05:54:58;15.97;;;6.90;;
3197;SDS011;1611;49.394;11.136;2023-07-08T05:57:25;13.43;;;7.10;;
3197;SDS011;1611;49.394;11.136;2023-07-08T05:59:52;28.20;;;8.47;;
3197;SDS011;1611;49.394;11.136;2023-07-08T06:02:18;93.77;;;10.87;;
3197;SDS011;1611;49.394;11.136;2023-07-08T06:04:48;227.43;;;19.67;;
3197;SDS011;1611;49.394;11.136;2023-07-08T06:07:15;84.87;;;12.40;;
3197;SDS011;1611;49.394;11.136;2023-07-08T06:09:42;15.60;;;7.17;;
3197;SDS011;1611;49.394;11.136;2023-07-08T06:12:10;12.53;;;6.60;;
3197;SDS011;1611;49.394;11.136;2023-07-08T06:14:37;14.73;;;7.13;;
3197;SDS011;1611;49.394;11.136;2023-07-08T06:17:04;33.93;;;7.60;;
3197;SDS011;1611;49.394;11.136;2023-07-08T06:19:32;14.57;;;7.07;;
3197;SDS011;1611;49.394;11.136;2023-07-08T06:21:58;16.53;;;7.00;;
3197;SDS011;1611;49.394;11.136;2023-07-08T06:24:25;36.03;;;7.70;;
3197;SDS011;1611;49.394;11.136;2023-07-08T06:26:52;34.30;;;8.50;;
3197;SDS011;1611;49.394;11.136;2023-07-08T06:29:20;23.67;;;7.07;;
3197;SDS011;1611;49.394;11.136;2023-07-08T06:31:47;60.67;;;9.47;;
3197;SDS011;1611;49.394;11.136;2023-07-08T06:34:13;14.27;;;7.47;;
3197;SDS011;1611;49.394;11.136;2023-07-08T06:36:40;29.23;;;6.87;;
3197;SDS011;1611;49.394;11.136;2023-07-08T06:39:07;18.63;;;8.27;;
3197;SDS011;1611;49.394;11.136;2023-07-08T06:41:36;12.03;;;7.07;;
3197;SDS011;1611;49.394;11.136;2023-07-08T06:44:03;41.63;;;8.80;;
3197;SDS011;1611;49.394;11.136;2023-07-08T06:46:31;34.23;;;9.33;;
3197;SDS011;1611;49.394;11.136;2023-07-08T06:48:58;15.83;;;6.90;;
3197;SDS011;1611;49.394;11.136;2023-07-08T06:51:25;8.97;;;6.60;;
3197;SDS011;1611;49.394;11.136;2023-07-08T06:53:51;10.73;;;6.60;;
3197;SDS011;1611;49.394;11.136;2023-07-08T06:56:18;25.13;;;7.03;;
3197;SDS011;1611;49.394;11.136;2023-07-08T06:58:45;6.80;;;6.10;;
3197;SDS011;1611;49.394;11.136;2023-07-08T07:01:12;7.70;;;5.70;;
3197;SDS011;1611;49.394;11.136;2023-07-08T07:03:40;11.90;;;6.57;;
3197;SDS011;1611;49.394;11.136;2023-07-08T07:06:07;25.23;;;5.90;;
3197;SDS011;1611;49.394;11.136;2023-07-08T07:08:34;13.00;;;5.87;;
3197;SDS011;1611;49.394;11.136;2023-07-08T07:11:00;7.33;;;5.70;;
3197;SDS011;1611;49.394;11.136;2023-07-08T07:13:27;7.67;;;5.63;;
3197;SDS011;1611;49.394;11.136;2023-07-08T07:15:54;11.13;;;5.83;;
3197;SDS011;1611;49.394;11.136;2023-07-08T07:18:21;9.17;;;6.37;;
3197;SDS011;1611;49.394;11.136;2023-07-08T07:20:49;7.60;;;5.50;;
3197;SDS011;1611;49.394;11.136;2023-07-08T07:23:19;11.80;;;5.83;;
3197;SDS011;1611;49.394;11.136;2023-07-08T07:25:46;8.47;;;7.50;;
3197;SDS011;1611;49.394;11.136;2023-07-08T07:28:13;8.20;;;5.60;;
3197;SDS011;1611;49.394;11.136;2023-07-08T07:30:41;6.57;;;6.00;;
3197;SDS011;1611;49.394;11.136;2023-07-08T07:33:08;9.33;;;5.90;;
3197;SDS011;1611;49.394;11.136;2023-07-08T07:35:35;5.93;;;5.40;;
3197;SDS011;1611;49.394;11.136;2023-07-08T07:38:08;6.70;;;5.60;;
3197;SDS011;1611;49.394;11.136;2023-07-08T07:40:35;5.50;;;5.00;;
3197;SDS011;1611;49.394;11.136;2023-07-08T07:43:02;9.70;;;6.33;;
3197;SDS011;1611;49.394;11.136;2023-07-08T07:45:28;7.90;;;5.53;;
3197;SDS011;1611;49.394;11.136;2023-07-08T07:47:55;17.87;;;6.30;;
3197;SDS011;1611;49.394;11.136;2023-07-08T07:50:22;9.07;;;5.90;;
3197;SDS011;1611;49.394;11.136;2023-07-08T07:52:48;6.80;;;5.40;;
3197;SDS011;1611;49.394;11.136;2023-07-08T07:55:17;5.40;;;5.10;;
3197;SDS011;1611;49.394;11.136;2023-07-08T07:57:44;9.00;;;5.83;;
3197;SDS011;1611;49.394;11.136;2023-07-08T08:00:12;8.93;;;5.63;;
3197;SDS011;1611;49.394;11.136;2023-07-08T08:02:39;5.60;;;5.13;;
3197;SDS011;1611;49.394;11.136;2023-07-08T08:05:06;7.07;;;5.90;;
3197;SDS011;1611;49.394;11.136;2023-07-08T08:07:34;8.90;;;6.13;;
3197;SDS011;1611;49.394;11.136;2023-07-08T08:10:01;6.43;;;5.70;;
3197;SDS011;1611;49.394;11.136;2023-07-08T08:12:29;6.57;;;5.67;;
3197;SDS011;1611;49.394;11.136;2023-07-08T08:14:56;13.70;;;5.80;;
3197;SDS011;1611;49.394;11.136;2023-07-08T08:17:23;5.80;;;5.27;;
3197;SDS011;1611;49.394;11.136;2023-07-08T08:19:49;7.70;;;5.40;;
3197;SDS011;1611;49.394;11.136;2023-07-08T08:22:16;7.00;;;5.33;;
3197;SDS011;1611;49.394;11.136;2023-07-08T08:24:43;12.80;;;5.43;;
3197;SDS011;1611;49.394;11.136;2023-07-08T08:27:10;5.53;;;5.03;;
3197;SDS011;1611;49.394;11.136;2023-07-08T08:29:38;8.23;;;5.60;;
3197;SDS011;1611;49.394;11.136;2023-07-08T08:32:04;6.53;;;5.87;;
3197;SDS011;1611;49.394;11.136;2023-07-08T08:34:31;10.47;;;5.40;;
3197;SDS011;1611;49.394;11.136;2023-07-08T08:36:58;9.33;;;5.90;;
3197;SDS011;1611;49.394;11.136;2023-07-08T08:39:25;5.83;;;5.33;;
3197;SDS011;1611;49.394;11.136;2023-07-08T08:41:54;6.03;;;5.30;;
3197;SDS011;1611;49.394;11.136;2023-07-08T08:44:22;8.50;;;4.93;;
3197;SDS011;1611;49.394;11.136;2023-07-08T08:47:02;7.47;;;6.03;;
3197;SDS011;1611;49.394;11.136;2023-07-08T08:49:35;11.87;;;6.30;;
3197;SDS011;1611;49.394;11.136;2023-07-08T08:52:08;6.60;;;6.00;;
3197;SDS011;1611;49.394;11.136;2023-07-08T08:54:35;6.17;;;5.67;;
3197;SDS011;1611;49.394;11.136;2023-07-08T08:57:05;6.53;;;5.93;;
3197;SDS011;1611;49.394;11.136;2023-07-08T08:59:42;5.13;;;4.83;;
3197;SDS011;1611;49.394;11.136;2023-07-08T09:02:18;20.27;;;6.90;;
3197;SDS011;1611;49.394;11.136;2023-07-08T09:04:53;13.00;;;6.50;;
3197;SDS011;1611;49.394;11.136;2023-07-08T09:07:21;8.57;;;5.80;;
3197;SDS011;1611;49.394;11.136;2023-07-08T09:09:49;7.30;;;6.57;;
3197;SDS011;1611;49.394;11.136;2023-07-08T09:12:20;25.37;;;6.13;;
3197;SDS011;1611;49.394;11.136;2023-07-08T09:14:50;6.00;;;5.50;;
3197;SDS011;1611;49.394;11.136;2023-07-08T09:17:19;5.80;;;5.33;;
3197;SDS011;1611;49.394;11.136;2023-07-08T09:19:49;6.43;;;5.80;;
3197;SDS011;1611;49.394;11.136;2023-07-08T09:22:25;5.83;;;5.20;;
3197;SDS011;1611;49.394;11.136;2023-07-08T09:25:01;7.57;;;5.90;;
3197;SDS011;1611;49.394;11.136;2023-07-08T09:27:31;6.87;;;6.17;;
3197;SDS011;1611;49.394;11.136;2023-07-08T09:29:58;6.43;;;5.83;;
3197;SDS011;1611;49.394;11.136;2023-07-08T09:32:27;6.70;;;6.20;;
3197;SDS011;1611;49.394;11.136;2023-07-08T09:34:54;6.30;;;5.83;;
3197;SDS011;1611;49.394;11.136;2023-07-08T09:37:23;7.50;;;5.40;;
3197;SDS011;1611;49.394;11.136;2023-07-08T09:39:52;5.27;;;4.90;;
3197;SDS011;1611;49.394;11.136;2023-07-08T09:42:20;5.80;;;5.30;;
3197;SDS011;1611;49.394;11.136;2023-07-08T09:44:53;5.93;;;5.43;;
3197;SDS011;1611;49.394;11.136;2023-07-08T09:47:22;5.90;;;5.50;;
3197;SDS011;1611;49.394;11.136;2023-07-08T09:49:54;6.43;;;5.73;;
3197;SDS011;1611;49.394;11.136;2023-07-08T09:52:24;7.00;;;5.50;;
3197;SDS011;1611;49.394;11.136;2023-07-08T09:54:51;12.43;;;5.70;;
3197;SDS011;1611;49.394;11.136;2023-07-08T09:57:20;6.53;;;6.03;;
3197;SDS011;1611;49.394;11.136;2023-07-08T09:59:52;6.10;;;5.60;;
3197;SDS011;1611;49.394;11.136;2023-07-08T10:02:27;5.83;;;5.43;;
3197;SDS011;1611;49.394;11.136;2023-07-08T10:04:58;6.40;;;5.90;;
3197;SDS011;1611;49.394;11.136;2023-07-08T10:07:27;5.90;;;5.50;;
3197;SDS011;1611;49.394;11.136;2023-07-08T10:09:57;5.20;;;4.70;;
3197;SDS011;1611;49.394;11.136;2023-07-08T10:12:26;6.53;;;6.03;;
3197;SDS011;1611;49.394;11.136;2023-07-08T10:14:56;10.10;;;5.20;;
3197;SDS011;1611;49.394;11.136;2023-07-08T10:17:27;6.00;;;5.40;;
3197;SDS011;1611;49.394;11.136;2023-07-08T10:19:55;7.03;;;5.90;;
3197;SDS011;1611;49.394;11.136;2023-07-08T10:22:30;6.33;;;5.73;;
3197;SDS011;1611;49.394;11.136;2023-07-08T10:25:08;6.13;;;5.73;;
3197;SDS011;1611;49.394;11.136;2023-07-08T10:27:44;5.87;;;5.40;;
3197;SDS011;1611;49.394;11.136;2023-07-08T10:30:20;6.73;;;5.73;;
3197;SDS011;1611;49.394;11.136;2023-07-08T10:32:53;6.27;;;5.67;;
3197;SDS011;1611;49.394;11.136;2023-07-08T10:35:50;6.67;;;5.80;;
3197;SDS011;1611;49.394;11.136;2023-07-08T10:38:30;15.87;;;14.40;;
3197;SDS011;1611;49.394;11.136;2023-07-08T10:41:08;5.63;;;5.33;;
3197;SDS011;1611;49.394;11.136;2023-07-08T10:43:45;5.93;;;5.53;;
3197;SDS011;1611;49.394;11.136;2023-07-08T10:46:26;6.23;;;5.70;;
3197;SDS011;1611;49.394;11.136;2023-07-08T10:49:07;6.30;;;5.80;;
3197;SDS011;1611;49.394;11.136;2023-07-08T10:51:53;6.57;;;5.87;;
3197;SDS011;1611;49.394;11.136;2023-07-08T10:54:33;9.00;;;6.93;;
3197;SDS011;1611;49.394;11.136;2023-07-08T10:57:35;6.80;;;6.20;;
3197;SDS011;1611;49.394;11.136;2023-07-08T11:00:20;7.03;;;6.33;;
3197;SDS011;1611;49.394;11.136;2023-07-08T11:03:02;5.93;;;5.43;;
3197;SDS011;1611;49.394;11.136;2023-07-08T11:05:56;7.50;;;6.40;;
3197;SDS011;1611;49.394;11.136;2023-07-08T11:08:30;7.60;;;6.60;;
3197;SDS011;1611;49.394;11.136;2023-07-08T11:11:03;6.93;;;6.23;;
3197;SDS011;1611;49.394;11.136;2023-07-08T11:13:35;6.10;;;5.60;;
3197;SDS011;1611;49.394;11.136;2023-07-08T11:16:10;11.03;;;8.10;;
3197;SDS011;1611;49.394;11.136;2023-07-08T11:18:43;16.93;;;9.33;;
3197;SDS011;1611;49.394;11.136;2023-07-08T11:21:15;6.80;;;6.10;;
3197;SDS011;1611;49.394;11.136;2023-07-08T11:23:49;6.60;;;6.03;;
3197;SDS011;1611;49.394;11.136;2023-07-08T11:26:22;8.00;;;7.07;;
3197;SDS011;1611;49.394;11.136;2023-07-08T11:28:54;6.40;;;5.80;;
3197;SDS011;1611;49.394;11.136;2023-07-08T11:31:25;6.80;;;6.30;;
3197;SDS011;1611;49.394;11.136;2023-07-08T11:33:54;7.17;;;6.57;;
3197;SDS011;1611;49.394;11.136;2023-07-08T11:36:22;10.00;;;6.10;;
3197;SDS011;1611;49.394;11.136;2023-07-08T11:38:52;7.23;;;6.53;;
3197;SDS011;1611;49.394;11.136;2023-07-08T11:41:21;6.53;;;6.13;;
3197;SDS011;1611;49.394;11.136;2023-07-08T11:43:50;7.70;;;7.00;;
3197;SDS011;1611;49.394;11.136;2023-07-08T11:46:22;14.40;;;7.97;;
3197;SDS011;1611;49.394;11.136;2023-07-08T11:48:51;11.03;;;9.37;;
3197;SDS011;1611;49.394;11.136;2023-07-08T11:51:19;13.50;;;9.40;;
3197;SDS011;1611;49.394;11.136;2023-07-08T11:53:49;11.30;;;8.83;;
3197;SDS011;1611;49.394;11.136;2023-07-08T11:56:25;14.07;;;9.37;;
3197;SDS011;1611;49.394;11.136;2023-07-08T11:58:57;7.73;;;6.93;;
3197;SDS011;1611;49.394;11.136;2023-07-08T12:01:32;20.47;;;7.40;;
3197;SDS011;1611;49.394;11.136;2023-07-08T12:04:23;14.40;;;6.90;;
3197;SDS011;1611;49.394;11.136;2023-07-08T12:07:14;19.17;;;7.67;;
3197;SDS011;1611;49.394;11.136;2023-07-08T12:09:47;7.60;;;6.90;;
3197;SDS011;1611;49.394;11.136;2023-07-08T12:12:24;8.30;;;6.63;;
3197;SDS011;1611;49.394;11.136;2023-07-08T12:14:55;6.50;;;6.00;;
3197;SDS011;1611;49.394;11.136;2023-07-08T12:17:27;6.40;;;6.00;;
3197;SDS011;1611;49.394;11.136;2023-07-08T12:20:04;6.53;;;6.00;;
3197;SDS011;1611;49.394;11.136;2023-07-08T12:22:41;6.90;;;6.40;;
3197;SDS011;1611;49.394;11.136;2023-07-08T12:25:10;6.90;;;6.37;;
3197;SDS011;1611;49.394;11.136;2023-07-08T12:27:40;7.47;;;6.87;;
3197;SDS011;1611;49.394;11.136;2023-07-08T12:30:07;7.80;;;7.10;;
3197;SDS011;1611;49.394;11.136;2023-07-08T12:32:35;12.90;;;7.50;;
3197;SDS011;1611;49.394;11.136;2023-07-08T12:35:02;9.30;;;8.53;;
3197;SDS011;1611;49.394;11.136;2023-07-08T12:37:31;8.43;;;7.83;;
3197;SDS011;1611;49.394;11.136;2023-07-08T12:39:57;9.73;;;9.00;;
3197;SDS011;1611;49.394;11.136;2023-07-08T12:42:30;11.53;;;8.50;;
3197;SDS011;1611;49.394;11.136;2023-07-08T12:44:57;9.07;;;8.23;;
3197;SDS011;1611;49.394;11.136;2023-07-08T12:47:24;9.50;;;8.93;;
3197;SDS011;1611;49.394;11.136;2023-07-08T12:49:51;10.30;;;9.43;;
3197;SDS011;1611;49.394;11.136;2023-07-08T12:52:19;9.90;;;9.30;;
3197;SDS011;1611;49.394;11.136;2023-07-08T12:54:47;17.63;;;12.00;;
3197;SDS011;1611;49.394;11.136;2023-07-08T12:57:14;13.63;;;11.43;;
3197;SDS011;1611;49.394;11.136;2023-07-08T12:59:43;10.93;;;10.33;;
3197;SDS011;1611;49.394;11.136;2023-07-08T13:02:12;9.93;;;9.43;;
3197;SDS011;1611;49.394;11.136;2023-07-08T13:04:43;12.30;;;11.37;;
3197;SDS011;1611;49.394;11.136;2023-07-08T13:07:12;12.20;;;11.20;;
3197;SDS011;1611;49.394;11.136;2023-07-08T13:09:48;12.10;;;11.30;;
3197;SDS011;1611;49.394;11.136;2023-07-08T13:12:16;16.20;;;11.23;;
3197;SDS011;1611;49.394;11.136;2023-07-08T13:14:48;11.00;;;10.10;;
3197;SDS011;1611;49.394;11.136;2023-07-08T13:17:16;10.13;;;9.20;;
3197;SDS011;1611;49.394;11.136;2023-07-08T13:19:43;9.23;;;8.53;;
3197;SDS011;1611;49.394;11.136;2023-07-08T13:22:12;9.40;;;8.60;;
3197;SDS011;1611;49.394;11.136;2023-07-08T13:24:42;9.57;;;8.73;;
3197;SDS011;1611;49.394;11.136;2023-07-08T13:27:12;15.17;;;7.93;;
3197;SDS011;1611;49.394;11.136;2023-07-08T13:29:44;8.30;;;7.80;;
3197;SDS011;1611;49.394;11.136;2023-07-08T13:32:12;10.13;;;7.70;;
3197;SDS011;1611;49.394;11.136;2023-07-08T13:34:40;9.57;;;8.83;;
3197;SDS011;1611;49.394;11.136;2023-07-08T13:37:09;9.50;;;8.70;;
3197;SDS011;1611;49.394;11.136;2023-07-08T13:39:38;9.23;;;8.73;;
3197;SDS011;1611;49.394;11.136;2023-07-08T13:42:09;9.30;;;8.63;;
3197;SDS011;1611;49.394;11.136;2023-07-08T13:44:41;9.50;;;9.00;;
3197;SDS011;1611;49.394;11.136;2023-07-08T13:47:19;8.67;;;8.07;;
3197;SDS011;1611;49.394;11.136;2023-07-08T13:49:48;9.20;;;8.57;;
3197;SDS011;1611;49.394;11.136;2023-07-08T13:52:19;8.83;;;7.90;;
3197;SDS011;1611;49.394;11.136;2023-07-08T13:54:48;7.97;;;7.47;;
3197;SDS011;1611;49.394;11.136;2023-07-08T13:57:19;8.23;;;7.73;;
3197;SDS011;1611;49.394;11.136;2023-07-08T13:59:48;9.87;;;9.27;;
3197;SDS011;1611;49.394;11.136;2023-07-08T14:02:16;9.80;;;9.00;;
3197;SDS011;1611;49.394;11.136;2023-07-08T14:04:47;10.27;;;9.67;;
3197;SDS011;1611;49.394;11.136;2023-07-08T14:07:15;11.80;;;11.07;;
3197;SDS011;1611;49.394;11.136;2023-07-08T14:09:43;12.37;;;11.37;;
3197;SDS011;1611;49.394;11.136;2023-07-08T14:12:10;13.53;;;12.23;;
3197;SDS011;1611;49.394;11.136;2023-07-08T14:14:37;12.90;;;12.20;;
3197;SDS011;1611;49.394;11.136;2023-07-08T14:17:04;13.50;;;12.63;;
3197;SDS011;1611;49.394;11.136;2023-07-08T14:19:35;12.70;;;11.80;;
3197;SDS011;1611;49.394;11.136;2023-07-08T14:24:50;14.87;;;13.87;;
3197;SDS011;1611;49.394;11.136;2023-07-08T14:27:17;19.60;;;15.40;;
3197;SDS011;1611;49.394;11.136;2023-07-08T14:29:45;14.50;;;13.50;;
3197;SDS011;1611;49.394;11.136;2023-07-08T14:32:15;16.37;;;14.90;;
3197;SDS011;1611;49.394;11.136;2023-07-08T14:34:48;15.50;;;14.30;;
3197;SDS011;1611;49.394;11.136;2023-07-08T14:37:18;23.20;;;16.00;;
3197;SDS011;1611;49.394;11.136;2023-07-08T14:39:45;14.80;;;13.70;;
3197;SDS011;1611;49.394;11.136;2023-07-08T14:42:13;14.47;;;13.50;;
3197;SDS011;1611;49.394;11.136;2023-07-08T14:44:42;14.50;;;13.33;;
3197;SDS011;1611;49.394;11.136;2023-07-08T14:47:10;41.73;;;15.70;;
3197;SDS011;1611;49.394;11.136;2023-07-08T14:49:38;19.80;;;12.60;;
3197;SDS011;1611;49.394;11.136;2023-07-08T14:52:07;9.83;;;9.07;;
3197;SDS011;1611;49.394;11.136;2023-07-08T14:54:34;9.47;;;8.80;;
3197;SDS011;1611;49.394;11.136;2023-07-08T14:57:01;10.47;;;8.70;;
3197;SDS011;1611;49.394;11.136;2023-07-08T14:59:30;8.73;;;8.13;;
3197;SDS011;1611;49.394;11.136;2023-07-08T15:01:59;13.20;;;7.87;;
3197;SDS011;1611;49.394;11.136;2023-07-08T15:04:28;9.70;;;7.57;;
3197;SDS011;1611;49.394;11.136;2023-07-08T15:06:55;7.60;;;7.10;;
3197;SDS011;1611;49.394;11.136;2023-07-08T15:09:26;7.43;;;6.80;;
3197;SDS011;1611;49.394;11.136;2023-07-08T15:11:53;8.40;;;6.83;;